KGGW/GGW METAR and TAF weather

Enter ICAO airport designator
Station Type Date Time Source
KGGW METAR 2019/10/15 18:53 UTC NOAA

KGGW 151853Z AUTO 00000KT 10SM SCT029 06/M03 A3024 RMK AO2 SLP258 T00611028


Station Type Date Time Source
KGGW Decoded METAR 2019/10/15 18:53 UTC NOAA

GLASGOW INTERNATIONAL AIRPORT , MT, United States (KGGW) 48-13N 106-37W 693M
Oct 15, 2019 - 02:53 PM EDT / 2019.10.15 1853 UTC
Wind: Calm:0
Visibility: 10 mile(s):0
Sky conditions: partly cloudy
Temperature: 43.0 F (6.1 C)
Dew Point: 27.0 F (-2.8 C)
Relative Humidity: 52%
Pressure (altimeter): 30.24 in. Hg (1024 hPa)
ob: KGGW 151853Z AUTO 00000KT 10SM SCT029 06/M03 A3024 RMK AO2 SLP258 T00611028
cycle: 19

Station Type Date Time Source
KGGW TAF 2019/10/15 18:24 UTC NOAA

TAF KGGW 151722Z 1518/1618 VRB05KT P6SM BKN025
FM151900 VRB04KT P6SM SCT030
FM160800 12011KT P6SM BKN120
FM161400 VRB05KT P6SM SCT150

Example: see airport list